createdAt,value
2023-05-12T00:04:10.048Z,44.47
2023-05-12T00:08:11.055Z,44.39
2023-05-12T00:12:02.129Z,44.55
2023-05-12T00:16:05.368Z,44.53
2023-05-12T00:20:07.014Z,44.49
2023-05-12T00:24:16.420Z,44.32
2023-05-12T00:28:25.825Z,44.38
2023-05-12T00:32:33.876Z,44.35
2023-05-12T00:36:43.361Z,44.44
2023-05-12T00:40:42.655Z,44.55
2023-05-12T00:44:44.525Z,44.68
2023-05-12T00:48:54.053Z,44.79
2023-05-12T00:53:03.492Z,44.72
2023-05-12T00:56:37.972Z,44.43
2023-05-12T01:00:29.141Z,44.16
2023-05-12T01:04:06.171Z,44.22
2023-05-12T01:08:07.358Z,43.92
2023-05-12T01:12:09.386Z,43.83
2023-05-12T01:16:18.808Z,43.74
2023-05-12T01:20:20.199Z,43.68
2023-05-12T01:24:29.778Z,43.64
2023-05-12T01:28:22.271Z,43.74
2023-05-12T01:31:53.727Z,43.75
2023-05-12T01:36:01.878Z,43.99
2023-05-12T01:39:54.727Z,44.12
2023-05-12T01:44:00.072Z,44.12
2023-05-12T01:47:34.384Z,44.38
2023-05-12T01:51:43.032Z,44.54
2023-05-12T01:55:44.991Z,44.58
2023-05-12T01:59:54.452Z,44.51
2023-05-12T02:03:53.002Z,44.64
2023-05-12T02:07:55.924Z,44.61
2023-05-12T02:12:08.255Z,44.68
2023-05-12T02:16:17.854Z,44.65
2023-05-12T02:20:18.934Z,44.82
2023-05-12T02:24:05.681Z,45.09
2023-05-12T02:28:15.344Z,44.98
2023-05-12T02:32:24.960Z,44.82
2023-05-12T02:36:34.446Z,44.64
2023-05-12T02:40:26.625Z,44.48
2023-05-12T02:44:29.765Z,44.52
2023-05-12T02:47:56.732Z,44.74
2023-05-12T02:51:46.069Z,44.92
2023-05-12T02:55:48.225Z,45.05
2023-05-12T02:59:57.603Z,44.90
2023-05-12T03:04:05.827Z,45.06
2023-05-12T03:08:15.455Z,45.13
2023-05-12T03:12:13.991Z,45.21
2023-05-12T03:16:23.474Z,45.28
2023-05-12T03:20:21.671Z,45.26
2023-05-12T03:23:37.439Z,45.40
2023-05-12T03:27:29.472Z,45.42
2023-05-12T03:31:18.181Z,45.49
2023-05-12T03:35:17.539Z,45.73
2023-05-12T03:39:24.710Z,45.56
2023-05-12T03:43:23.573Z,45.39
2023-05-12T03:47:33.122Z,45.30
2023-05-12T03:51:42.620Z,45.31
2023-05-12T03:55:52.217Z,45.08
2023-05-12T03:59:17.535Z,45.05
2023-05-12T04:02:28.292Z,45.19
2023-05-12T04:06:15.892Z,45.08
2023-05-12T04:10:05.180Z,45.05
2023-05-12T04:13:33.211Z,45.08
2023-05-12T04:16:22.739Z,44.91
2023-05-12T04:19:21.058Z,44.79
2023-05-12T04:23:22.006Z,44.74
2023-05-12T04:27:24.024Z,44.83
2023-05-12T04:30:50.961Z,44.81
2023-05-12T04:34:49.353Z,44.74
2023-05-12T04:38:04.562Z,44.64
2023-05-12T04:41:44.150Z,44.65
2023-05-12T04:45:26.185Z,44.75
2023-05-12T04:48:48.242Z,44.58
2023-05-12T04:51:44.477Z,44.69
2023-05-12T04:54:55.907Z,44.64
2023-05-12T04:58:33.776Z,44.66
2023-05-12T05:01:54.486Z,44.72
2023-05-12T05:05:23.629Z,44.60
2023-05-12T05:08:53.278Z,44.69
2023-05-12T05:12:13.331Z,44.72
2023-05-12T05:15:23.691Z,44.64
2023-05-12T05:18:47.873Z,44.55
2023-05-12T05:22:05.990Z,44.49
2023-05-12T05:25:56.980Z,44.39
2023-05-12T05:29:07.472Z,44.29
2023-05-12T05:32:47.585Z,44.07
2023-05-12T05:36:38.247Z,43.96
2023-05-12T05:39:50.169Z,43.84
2023-05-12T05:43:05.886Z,43.90
2023-05-12T05:46:45.355Z,43.65
2023-05-12T05:49:29.563Z,43.64
2023-05-12T05:52:34.857Z,43.73
2023-05-12T05:55:38.565Z,43.59
2023-05-12T05:58:42.620Z,43.51
2023-05-12T06:02:00.726Z,43.45
2023-05-12T06:04:35.841Z,43.46
2023-05-12T06:08:24.505Z,43.43
2023-05-12T06:12:30.057Z,43.35
2023-05-12T06:16:12.028Z,43.15
2023-05-12T06:20:15.315Z,43.17
2023-05-12T06:23:09.402Z,43.16
2023-05-12T06:26:03.462Z,43.05
2023-05-12T06:29:29.930Z,42.96
2023-05-12T06:32:48.750Z,42.88
2023-05-12T06:35:49.153Z,42.77
2023-05-12T06:38:41.670Z,42.76
2023-05-12T06:42:09.144Z,42.75
2023-05-12T06:45:40.310Z,42.63
2023-05-12T06:49:04.148Z,42.62
2023-05-12T06:52:40.525Z,42.54
2023-05-12T06:56:29.768Z,42.49
2023-05-12T07:00:20.606Z,42.44
2023-05-12T07:03:57.392Z,42.42
2023-05-12T07:07:23.747Z,42.32
2023-05-12T07:11:01.874Z,42.33
2023-05-12T07:14:01.788Z,42.23
2023-05-12T07:17:20.765Z,42.22
2023-05-12T07:20:31.774Z,42.24
2023-05-12T07:24:12.534Z,42.21
2023-05-12T07:27:25.123Z,42.12
2023-05-12T07:30:39.603Z,42.12
2023-05-12T07:33:58.845Z,42.11
2023-05-12T07:37:51.099Z,42.11
2023-05-12T07:41:21.612Z,42.06
2023-05-12T07:43:50.596Z,42.03
2023-05-12T07:46:42.499Z,42.04
2023-05-12T07:49:47.388Z,42.06
2023-05-12T07:52:28.952Z,41.97
2023-05-12T07:55:37.999Z,42.00
2023-05-12T07:58:12.459Z,42.02
2023-05-12T08:01:24.622Z,42.02
2023-05-12T08:04:15.240Z,42.15
2023-05-12T08:07:22.895Z,42.10
2023-05-12T08:10:34.420Z,42.12
2023-05-12T08:14:07.047Z,42.05
2023-05-12T08:17:21.756Z,42.10
2023-05-12T08:20:36.698Z,42.20
2023-05-12T08:24:28.196Z,42.18
2023-05-12T08:27:52.722Z,42.04
2023-05-12T08:30:56.849Z,41.89
2023-05-12T08:34:22.338Z,41.92
2023-05-12T08:37:34.351Z,41.92
2023-05-12T08:40:58.857Z,42.14
2023-05-12T08:44:19.666Z,42.18
2023-05-12T08:47:04.315Z,42.16
2023-05-12T08:50:49.216Z,42.16
2023-05-12T08:53:45.394Z,42.43
2023-05-12T08:59:14.846Z,42.56
2023-05-12T09:02:18.946Z,42.61
2023-05-12T09:05:14.420Z,42.67
2023-05-12T09:07:46.774Z,42.50
2023-05-12T09:13:26.329Z,42.34
2023-05-12T09:16:04.772Z,42.27
2023-05-12T09:18:54.763Z,42.29
2023-05-12T09:21:24.048Z,42.24
2023-05-12T09:23:57.060Z,42.16
2023-05-12T09:26:34.492Z,42.22
2023-05-12T09:29:08.608Z,42.13
2023-05-12T09:32:09.263Z,42.29
2023-05-12T09:34:51.783Z,42.35
2023-05-12T09:37:38.390Z,42.37
2023-05-12T09:40:58.061Z,42.58
2023-05-12T09:43:50.512Z,42.60
2023-05-12T09:46:40.963Z,42.61
2023-05-12T09:50:12.779Z,42.71
2023-05-12T09:53:12.809Z,42.74
2023-05-12T09:56:13.825Z,42.80
2023-05-12T09:59:26.749Z,42.75
2023-05-12T10:02:42.378Z,42.64
2023-05-12T10:06:07.902Z,42.76
2023-05-12T10:09:49.043Z,42.49
2023-05-12T10:13:14.724Z,42.64
2023-05-12T10:16:28.601Z,42.63
2023-05-12T10:19:52.945Z,42.56
2023-05-12T10:22:32.043Z,42.50
2023-05-12T10:25:39.721Z,42.32
2023-05-12T10:29:15.520Z,42.12
2023-05-12T10:31:52.720Z,42.24
2023-05-12T10:34:52.615Z,42.16
2023-05-12T10:37:33.439Z,42.02
2023-05-12T10:40:43.228Z,42.05
2023-05-12T10:43:36.695Z,41.81
2023-05-12T10:46:50.797Z,41.72
2023-05-12T10:49:55.318Z,41.80
2023-05-12T10:52:26.917Z,41.80
2023-05-12T10:55:14.678Z,41.75
2023-05-12T10:57:54.441Z,41.54
2023-05-12T11:01:08.190Z,41.74
2023-05-12T11:03:54.473Z,41.66
2023-05-12T11:06:44.981Z,41.50
2023-05-12T11:10:13.299Z,41.41
2023-05-12T11:12:56.599Z,41.45
2023-05-12T11:15:28.803Z,41.48
2023-05-12T11:18:13.080Z,41.40
2023-05-12T11:21:17.865Z,41.27
2023-05-12T11:24:17.883Z,41.31
2023-05-12T11:27:39.312Z,41.05
2023-05-12T11:30:37.111Z,41.04
2023-05-12T11:37:26.603Z,40.93
2023-05-12T11:40:49.949Z,40.67
2023-05-12T11:44:53.083Z,40.65
2023-05-12T11:47:54.642Z,40.81
2023-05-12T11:50:44.735Z,40.62
2023-05-12T11:53:50.683Z,40.59
2023-05-12T11:56:57.052Z,40.32
2023-05-12T11:59:40.458Z,40.35
2023-05-12T12:02:43.333Z,40.43
2023-05-12T12:05:24.764Z,40.46
2023-05-12T12:08:13.253Z,40.45
2023-05-12T12:10:47.892Z,40.17
2023-05-12T12:13:27.175Z,40.03
2023-05-12T12:16:00.921Z,39.74
2023-05-12T12:18:51.846Z,39.61
2023-05-12T12:21:28.129Z,39.54
2023-05-12T12:23:59.845Z,39.73
2023-05-12T12:26:28.333Z,39.53
2023-05-12T12:28:59.840Z,39.39
2023-05-12T12:31:36.667Z,39.29
2023-05-12T12:34:05.158Z,39.18
2023-05-12T12:36:36.921Z,39.23
2023-05-12T12:39:05.350Z,39.10
2023-05-12T12:42:05.318Z,38.77
2023-05-12T12:44:50.310Z,38.81
2023-05-12T12:47:24.904Z,38.79
2023-05-12T12:49:53.418Z,38.50
2023-05-12T12:52:31.024Z,38.62
2023-05-12T12:55:02.661Z,38.39
2023-05-12T12:57:31.187Z,38.15
2023-05-12T13:00:02.984Z,37.92
2023-05-12T13:02:31.324Z,38.02
2023-05-12T13:05:07.240Z,37.99
2023-05-12T13:07:35.812Z,38.06
2023-05-12T13:10:05.089Z,37.84
2023-05-12T13:12:39.119Z,37.73
2023-05-12T13:15:32.399Z,37.79
2023-05-12T13:18:03.907Z,37.82
2023-05-12T13:20:36.454Z,37.51
2023-05-12T13:23:11.028Z,37.26
2023-05-12T13:25:44.935Z,37.28
2023-05-12T13:28:23.590Z,37.40
2023-05-12T13:31:15.285Z,37.38
2023-05-12T13:33:46.356Z,37.18
2023-05-12T13:36:17.669Z,37.27
2023-05-12T13:38:56.477Z,37.17
2023-05-12T13:41:25.017Z,37.01
2023-05-12T13:44:11.594Z,37.18
2023-05-12T13:47:00.203Z,37.34
2023-05-12T13:49:36.869Z,37.05
2023-05-12T13:52:57.751Z,36.94
2023-05-12T13:55:40.604Z,37.03
2023-05-12T13:58:46.516Z,36.83
2023-05-12T14:02:11.969Z,36.85
2023-05-12T14:05:35.944Z,36.53
2023-05-12T14:09:11.890Z,36.63
2023-05-12T14:11:54.590Z,36.59
2023-05-12T14:14:23.221Z,36.59
2023-05-12T14:16:55.094Z,36.85
2023-05-12T14:19:23.658Z,36.47
2023-05-12T14:21:52.134Z,36.31
2023-05-12T14:24:20.531Z,36.28
2023-05-12T14:26:51.636Z,36.26
2023-05-12T14:29:19.912Z,36.49
2023-05-12T14:31:48.307Z,36.52
2023-05-12T14:34:19.311Z,36.33
2023-05-12T14:36:50.376Z,36.48
2023-05-12T14:39:21.844Z,36.32
2023-05-12T14:41:53.618Z,36.18
2023-05-12T14:44:21.900Z,36.40
2023-05-12T14:46:50.226Z,36.24
2023-05-12T14:49:59.211Z,36.04
2023-05-12T14:52:57.562Z,36.08
2023-05-12T14:55:41.442Z,36.05
2023-05-12T14:58:36.490Z,36.09
2023-05-12T15:01:54.331Z,35.96
2023-05-12T15:05:00.188Z,35.96
2023-05-12T15:08:26.045Z,35.86
2023-05-12T15:12:04.124Z,35.67
2023-05-12T15:15:40.651Z,35.83
2023-05-12T15:18:23.764Z,35.76
2023-05-12T15:21:42.973Z,35.59
2023-05-12T15:24:20.355Z,35.52
2023-05-12T15:26:49.040Z,35.45
2023-05-12T15:29:37.399Z,35.33
2023-05-12T15:35:24.263Z,35.13
2023-05-12T15:38:29.285Z,34.97
2023-05-12T15:42:02.165Z,35.06
2023-05-12T15:45:35.658Z,34.85
2023-05-12T15:48:24.419Z,34.92
2023-05-12T15:51:47.212Z,34.66
2023-05-12T15:54:49.842Z,34.49
2023-05-12T15:57:33.075Z,34.49
2023-05-12T16:00:27.792Z,33.99
2023-05-12T16:03:17.394Z,34.01
2023-05-12T16:06:02.076Z,33.96
2023-05-12T16:09:00.784Z,33.78
2023-05-12T16:12:17.813Z,33.67
2023-05-12T16:15:40.371Z,33.72
2023-05-12T16:18:31.935Z,33.60
2023-05-12T16:22:03.359Z,33.49
2023-05-12T16:24:56.592Z,33.45
2023-05-12T16:28:28.411Z,33.37
2023-05-12T16:32:03.868Z,33.33
2023-05-12T16:35:04.623Z,33.66
2023-05-12T16:38:32.360Z,33.70
2023-05-12T16:41:41.580Z,33.57
2023-05-12T16:44:50.765Z,33.48
2023-05-12T16:47:53.328Z,33.42
2023-05-12T16:51:16.780Z,33.46
2023-05-12T16:54:55.128Z,33.49
2023-05-12T16:58:42.679Z,33.55
2023-05-12T17:01:34.598Z,33.29
2023-05-12T17:04:03.181Z,33.37
2023-05-12T17:06:32.028Z,33.48
2023-05-12T17:09:12.713Z,33.45
2023-05-12T17:11:41.116Z,33.29
2023-05-12T17:14:12.639Z,33.15
2023-05-12T17:16:44.885Z,33.34
2023-05-12T17:19:14.400Z,33.26
2023-05-12T17:21:52.145Z,33.50
2023-05-12T17:24:24.515Z,33.53
2023-05-12T17:27:06.917Z,33.57
2023-05-12T17:29:35.724Z,33.76
2023-05-12T17:32:05.741Z,33.70
2023-05-12T17:35:08.517Z,33.76
2023-05-12T17:37:40.330Z,33.81
2023-05-12T17:40:40.031Z,33.68
2023-05-12T17:43:18.622Z,34.05
2023-05-12T17:46:00.539Z,34.18
2023-05-12T17:48:38.450Z,34.27
2023-05-12T17:51:39.237Z,34.43
2023-05-12T17:54:17.817Z,34.63
2023-05-12T17:56:48.789Z,34.77
2023-05-12T17:59:20.646Z,34.84
2023-05-12T18:01:56.563Z,34.96
2023-05-12T18:05:07.659Z,35.29
2023-05-12T18:07:56.080Z,35.27
2023-05-12T18:10:51.248Z,35.59
2023-05-12T18:13:27.646Z,35.59
2023-05-12T18:16:36.495Z,35.73
2023-05-12T18:19:27.652Z,36.08
2023-05-12T18:21:59.242Z,36.03
2023-05-12T18:24:58.008Z,36.59
2023-05-12T18:27:47.002Z,36.78
2023-05-12T18:30:18.704Z,36.83
2023-05-12T18:32:54.789Z,37.17
2023-05-12T18:35:27.156Z,37.13
2023-05-12T18:37:58.835Z,37.25
2023-05-12T18:40:35.281Z,37.63
2023-05-12T18:43:03.868Z,37.78
2023-05-12T18:46:03.973Z,37.76
2023-05-12T18:48:54.141Z,37.95
2023-05-12T18:52:00.707Z,38.25
2023-05-12T18:54:44.224Z,38.25
2023-05-12T18:57:35.389Z,38.48
2023-05-12T19:00:12.899Z,38.71
2023-05-12T19:02:42.453Z,38.75
2023-05-12T19:05:13.932Z,38.83
2023-05-12T19:07:52.128Z,39.00
2023-05-12T19:10:29.166Z,39.09
2023-05-12T19:13:00.426Z,39.37
2023-05-12T19:16:23.804Z,39.50
2023-05-12T19:18:57.755Z,39.64
2023-05-12T19:21:37.242Z,39.75
2023-05-12T19:24:09.193Z,39.90
2023-05-12T19:26:37.627Z,40.03
2023-05-12T19:29:12.165Z,40.04
2023-05-12T19:31:41.109Z,40.29
2023-05-12T19:34:09.648Z,40.31
2023-05-12T19:36:41.173Z,40.55
2023-05-12T19:39:10.210Z,40.81
2023-05-12T19:41:40.078Z,41.01
2023-05-12T19:44:12.069Z,40.94
2023-05-12T19:46:40.401Z,41.17
2023-05-12T19:49:18.657Z,41.34
2023-05-12T19:52:30.591Z,41.43
2023-05-12T19:55:12.042Z,41.48
2023-05-12T19:57:48.187Z,41.69
2023-05-12T20:00:39.912Z,41.85
2023-05-12T20:03:08.949Z,42.08
2023-05-12T20:05:49.032Z,42.11
2023-05-12T20:08:17.959Z,42.18
2023-05-12T20:11:24.802Z,42.26
2023-05-12T20:14:22.866Z,42.34
2023-05-12T20:17:31.880Z,42.44
2023-05-12T20:20:50.129Z,42.59
2023-05-12T20:23:18.777Z,42.81
2023-05-12T20:25:50.291Z,42.78
2023-05-12T20:28:24.136Z,42.89
2023-05-12T20:31:33.386Z,43.11
2023-05-12T20:34:24.190Z,43.25
2023-05-12T20:36:55.384Z,43.39
2023-05-12T20:39:30.147Z,43.42
2023-05-12T20:42:00.126Z,43.59
2023-05-12T20:44:38.738Z,43.62
2023-05-12T20:47:13.096Z,43.75
2023-05-12T20:49:47.921Z,43.84
2023-05-12T20:52:32.141Z,43.95
2023-05-12T20:55:04.044Z,44.01
2023-05-12T20:57:32.531Z,44.04
2023-05-12T21:00:04.682Z,44.18
2023-05-12T21:02:56.860Z,44.14
2023-05-12T21:05:41.970Z,44.37
2023-05-12T21:08:14.242Z,44.45
2023-05-12T21:10:52.095Z,44.63
2023-05-12T21:13:31.009Z,44.66
2023-05-12T21:16:22.647Z,44.76
2023-05-12T21:18:51.629Z,44.77
2023-05-12T21:21:31.739Z,44.92
2023-05-12T21:24:03.043Z,45.00
2023-05-12T21:26:39.731Z,45.16
2023-05-12T21:29:10.631Z,45.26
2023-05-12T21:31:41.912Z,45.33
2023-05-12T21:34:24.737Z,45.35
2023-05-12T21:37:45.255Z,45.36
2023-05-12T21:41:05.343Z,45.56
2023-05-12T21:44:17.147Z,45.67
2023-05-12T21:47:04.221Z,45.73
2023-05-12T21:49:57.705Z,45.81
2023-05-12T21:52:36.598Z,45.84
2023-05-12T21:55:34.070Z,45.98
2023-05-12T21:58:05.704Z,46.09
2023-05-12T22:01:19.676Z,46.06
2023-05-12T22:04:04.366Z,46.22
2023-05-12T22:06:48.054Z,46.21
2023-05-12T22:09:20.495Z,46.24
2023-05-12T22:12:25.852Z,46.35
2023-05-12T22:15:07.011Z,46.48
2023-05-12T22:17:49.645Z,46.53
2023-05-12T22:20:25.889Z,46.64
2023-05-12T22:23:30.529Z,46.70
2023-05-12T22:26:21.902Z,46.77
2023-05-12T22:28:53.774Z,46.90
2023-05-12T22:31:42.995Z,46.92
2023-05-12T22:34:27.277Z,46.99
2023-05-12T22:37:09.389Z,47.02
2023-05-12T22:40:10.681Z,47.20
2023-05-12T22:43:01.981Z,47.24
2023-05-12T22:45:57.513Z,47.23
2023-05-12T22:48:29.474Z,47.38
2023-05-12T22:51:04.671Z,47.45
2023-05-12T22:53:49.572Z,47.52
2023-05-12T22:56:29.487Z,47.58
2023-05-12T22:59:23.234Z,47.62
2023-05-12T23:02:18.233Z,47.71
2023-05-12T23:04:49.546Z,47.82
2023-05-12T23:07:22.928Z,47.88
2023-05-12T23:10:15.641Z,47.90
2023-05-12T23:12:53.369Z,48.01
2023-05-12T23:15:43.264Z,48.10
2023-05-12T23:18:37.588Z,48.20
2023-05-12T23:21:12.402Z,48.24
2023-05-12T23:24:07.798Z,48.34
2023-05-12T23:26:53.275Z,48.37
2023-05-12T23:29:42.006Z,48.48
2023-05-12T23:32:42.598Z,48.60
2023-05-12T23:35:16.080Z,48.63
2023-05-12T23:37:58.922Z,48.69
2023-05-12T23:40:44.578Z,48.77
2023-05-12T23:43:46.182Z,48.80
2023-05-12T23:47:13.480Z,48.85
2023-05-12T23:50:51.566Z,48.93
2023-05-12T23:53:34.166Z,49.00
2023-05-12T23:56:10.051Z,49.07
2023-05-12T23:58:59.441Z,49.03
